sensor_id;sensor_type;location;lat;lon;timestamp;pressure;altitude;pressure_sealevel;temperature
20736;BMP180;10528;52.124;5.196;2023-04-15T00:01:36;100776.00;;;15.40
20736;BMP180;10528;52.124;5.196;2023-04-15T00:04:03;100782.00;;;15.40
20736;BMP180;10528;52.124;5.196;2023-04-15T00:06:30;100782.00;;;15.40
20736;BMP180;10528;52.124;5.196;2023-04-15T00:08:57;100782.00;;;15.40
20736;BMP180;10528;52.124;5.196;2023-04-15T00:11:24;100781.00;;;15.30
20736;BMP180;10528;52.124;5.196;2023-04-15T00:13:51;100778.00;;;15.30
20736;BMP180;10528;52.124;5.196;2023-04-15T00:16:18;100768.00;;;15.30
20736;BMP180;10528;52.124;5.196;2023-04-15T00:18:45;100785.00;;;15.40
20736;BMP180;10528;52.124;5.196;2023-04-15T00:21:12;100782.00;;;15.30
20736;BMP180;10528;52.124;5.196;2023-04-15T00:23:39;100779.00;;;15.30
20736;BMP180;10528;52.124;5.196;2023-04-15T00:26:06;100777.00;;;15.30
20736;BMP180;10528;52.124;5.196;2023-04-15T00:28:33;100782.00;;;15.40
20736;BMP180;10528;52.124;5.196;2023-04-15T00:30:59;100776.00;;;15.40
20736;BMP180;10528;52.124;5.196;2023-04-15T00:33:26;100766.00;;;15.30
20736;BMP180;10528;52.124;5.196;2023-04-15T00:35:53;100779.00;;;15.40
20736;BMP180;10528;52.124;5.196;2023-04-15T00:38:20;100770.00;;;15.30
20736;BMP180;10528;52.124;5.196;2023-04-15T00:40:47;100770.00;;;15.30
20736;BMP180;10528;52.124;5.196;2023-04-15T00:43:15;100778.00;;;15.30
20736;BMP180;10528;52.124;5.196;2023-04-15T00:45:43;100778.00;;;15.30
20736;BMP180;10528;52.124;5.196;2023-04-15T00:48:11;100787.00;;;15.30
20736;BMP180;10528;52.124;5.196;2023-04-15T00:50:38;100791.00;;;15.30
20736;BMP180;10528;52.124;5.196;2023-04-15T00:53:05;100778.00;;;15.20
20736;BMP180;10528;52.124;5.196;2023-04-15T00:55:32;100789.00;;;15.20
20736;BMP180;10528;52.124;5.196;2023-04-15T00:57:58;100783.00;;;15.20
20736;BMP180;10528;52.124;5.196;2023-04-15T01:00:26;100787.00;;;15.20
20736;BMP180;10528;52.124;5.196;2023-04-15T01:02:52;100795.00;;;15.10
20736;BMP180;10528;52.124;5.196;2023-04-15T01:05:20;100779.00;;;15.10
20736;BMP180;10528;52.124;5.196;2023-04-15T01:07:47;100788.00;;;15.10
20736;BMP180;10528;52.124;5.196;2023-04-15T01:10:14;100778.00;;;15.10
20736;BMP180;10528;52.124;5.196;2023-04-15T01:12:41;100776.00;;;15.10
20736;BMP180;10528;52.124;5.196;2023-04-15T01:15:09;100780.00;;;15.10
20736;BMP180;10528;52.124;5.196;2023-04-15T01:17:38;100786.00;;;15.10
20736;BMP180;10528;52.124;5.196;2023-04-15T01:20:07;100797.00;;;15.10
20736;BMP180;10528;52.124;5.196;2023-04-15T01:22:37;100785.00;;;15.00
20736;BMP180;10528;52.124;5.196;2023-04-15T01:25:16;100787.00;;;15.00
20736;BMP180;10528;52.124;5.196;2023-04-15T01:27:43;100782.00;;;15.00
20736;BMP180;10528;52.124;5.196;2023-04-15T01:30:11;100783.00;;;14.90
20736;BMP180;10528;52.124;5.196;2023-04-15T01:32:38;100788.00;;;14.90
20736;BMP180;10528;52.124;5.196;2023-04-15T01:35:05;100777.00;;;14.90
20736;BMP180;10528;52.124;5.196;2023-04-15T01:37:33;100785.00;;;14.90
20736;BMP180;10528;52.124;5.196;2023-04-15T01:40:00;100794.00;;;14.80
20736;BMP180;10528;52.124;5.196;2023-04-15T01:42:27;100783.00;;;14.80
20736;BMP180;10528;52.124;5.196;2023-04-15T01:44:54;100782.00;;;14.80
20736;BMP180;10528;52.124;5.196;2023-04-15T01:47:20;100778.00;;;14.80
20736;BMP180;10528;52.124;5.196;2023-04-15T01:49:48;100784.00;;;14.70
20736;BMP180;10528;52.124;5.196;2023-04-15T01:52:15;100792.00;;;14.70
20736;BMP180;10528;52.124;5.196;2023-04-15T01:54:41;100786.00;;;14.70
20736;BMP180;10528;52.124;5.196;2023-04-15T01:57:08;100788.00;;;14.70
20736;BMP180;10528;52.124;5.196;2023-04-15T01:59:35;100792.00;;;14.70
20736;BMP180;10528;52.124;5.196;2023-04-15T02:02:03;100793.00;;;14.70
20736;BMP180;10528;52.124;5.196;2023-04-15T02:04:31;100791.00;;;14.70
20736;BMP180;10528;52.124;5.196;2023-04-15T02:06:59;100789.00;;;14.60
20736;BMP180;10528;52.124;5.196;2023-04-15T02:09:26;100792.00;;;14.60
20736;BMP180;10528;52.124;5.196;2023-04-15T02:11:53;100802.00;;;14.60
20736;BMP180;10528;52.124;5.196;2023-04-15T02:14:20;100789.00;;;14.50
20736;BMP180;10528;52.124;5.196;2023-04-15T02:16:47;100800.00;;;14.50
20736;BMP180;10528;52.124;5.196;2023-04-15T02:19:15;100807.00;;;14.50
20736;BMP180;10528;52.124;5.196;2023-04-15T02:21:41;100809.00;;;14.40
20736;BMP180;10528;52.124;5.196;2023-04-15T02:24:08;100803.00;;;14.40
20736;BMP180;10528;52.124;5.196;2023-04-15T02:26:35;100808.00;;;14.40
20736;BMP180;10528;52.124;5.196;2023-04-15T02:29:03;100814.00;;;14.40
20736;BMP180;10528;52.124;5.196;2023-04-15T02:31:29;100816.00;;;14.30
20736;BMP180;10528;52.124;5.196;2023-04-15T02:33:59;100822.00;;;14.30
20736;BMP180;10528;52.124;5.196;2023-04-15T02:36:30;100820.00;;;14.30
20736;BMP180;10528;52.124;5.196;2023-04-15T02:38:57;100819.00;;;14.20
20736;BMP180;10528;52.124;5.196;2023-04-15T02:41:25;100830.00;;;14.20
20736;BMP180;10528;52.124;5.196;2023-04-15T02:43:54;100824.00;;;14.20
20736;BMP180;10528;52.124;5.196;2023-04-15T02:46:21;100820.00;;;14.20
20736;BMP180;10528;52.124;5.196;2023-04-15T02:48:49;100826.00;;;14.20
20736;BMP180;10528;52.124;5.196;2023-04-15T02:51:21;100828.00;;;14.10
20736;BMP180;10528;52.124;5.196;2023-04-15T02:53:49;100833.00;;;14.10
20736;BMP180;10528;52.124;5.196;2023-04-15T02:56:16;100831.00;;;14.10
20736;BMP180;10528;52.124;5.196;2023-04-15T02:58:45;100844.00;;;14.10
20736;BMP180;10528;52.124;5.196;2023-04-15T03:01:12;100838.00;;;14.00
20736;BMP180;10528;52.124;5.196;2023-04-15T03:03:40;100829.00;;;14.00
20736;BMP180;10528;52.124;5.196;2023-04-15T03:06:07;100844.00;;;13.90
20736;BMP180;10528;52.124;5.196;2023-04-15T03:08:34;100839.00;;;13.90
20736;BMP180;10528;52.124;5.196;2023-04-15T03:11:02;100844.00;;;13.80
20736;BMP180;10528;52.124;5.196;2023-04-15T03:13:29;100839.00;;;13.80
20736;BMP180;10528;52.124;5.196;2023-04-15T03:15:57;100846.00;;;13.80
20736;BMP180;10528;52.124;5.196;2023-04-15T03:18:25;100847.00;;;13.80
20736;BMP180;10528;52.124;5.196;2023-04-15T03:20:52;100850.00;;;13.70
20736;BMP180;10528;52.124;5.196;2023-04-15T03:23:19;100854.00;;;13.70
20736;BMP180;10528;52.124;5.196;2023-04-15T03:25:47;100844.00;;;13.70
20736;BMP180;10528;52.124;5.196;2023-04-15T03:28:14;100854.00;;;13.60
20736;BMP180;10528;52.124;5.196;2023-04-15T03:30:41;100852.00;;;13.60
20736;BMP180;10528;52.124;5.196;2023-04-15T03:33:08;100855.00;;;13.60
20736;BMP180;10528;52.124;5.196;2023-04-15T03:35:35;100861.00;;;13.60
20736;BMP180;10528;52.124;5.196;2023-04-15T03:38:03;100863.00;;;13.50
20736;BMP180;10528;52.124;5.196;2023-04-15T03:40:30;100865.00;;;13.50
20736;BMP180;10528;52.124;5.196;2023-04-15T03:42:56;100868.00;;;13.50
20736;BMP180;10528;52.124;5.196;2023-04-15T03:45:24;100865.00;;;13.40
20736;BMP180;10528;52.124;5.196;2023-04-15T03:47:51;100862.00;;;13.40
20736;BMP180;10528;52.124;5.196;2023-04-15T03:50:18;100880.00;;;13.40
20736;BMP180;10528;52.124;5.196;2023-04-15T03:52:45;100870.00;;;13.40
20736;BMP180;10528;52.124;5.196;2023-04-15T03:55:12;100882.00;;;13.40
20736;BMP180;10528;52.124;5.196;2023-04-15T03:57:39;100880.00;;;13.30
20736;BMP180;10528;52.124;5.196;2023-04-15T04:00:08;100877.00;;;13.30
20736;BMP180;10528;52.124;5.196;2023-04-15T04:02:38;100882.00;;;13.30
20736;BMP180;10528;52.124;5.196;2023-04-15T04:05:05;100887.00;;;13.30
20736;BMP180;10528;52.124;5.196;2023-04-15T04:07:32;100893.00;;;13.30
20736;BMP180;10528;52.124;5.196;2023-04-15T04:09:59;100895.00;;;13.20
20736;BMP180;10528;52.124;5.196;2023-04-15T04:12:26;100901.00;;;13.20
20736;BMP180;10528;52.124;5.196;2023-04-15T04:14:53;100898.00;;;13.20
20736;BMP180;10528;52.124;5.196;2023-04-15T04:17:19;100895.00;;;13.20
20736;BMP180;10528;52.124;5.196;2023-04-15T04:19:46;100898.00;;;13.10
20736;BMP180;10528;52.124;5.196;2023-04-15T04:22:13;100896.00;;;13.10
20736;BMP180;10528;52.124;5.196;2023-04-15T04:24:40;100907.00;;;13.10
20736;BMP180;10528;52.124;5.196;2023-04-15T04:27:07;100918.00;;;13.10
20736;BMP180;10528;52.124;5.196;2023-04-15T04:29:33;100906.00;;;13.10
20736;BMP180;10528;52.124;5.196;2023-04-15T04:32:00;100916.00;;;13.00
20736;BMP180;10528;52.124;5.196;2023-04-15T04:34:27;100921.00;;;13.00
20736;BMP180;10528;52.124;5.196;2023-04-15T04:36:54;100918.00;;;13.00
20736;BMP180;10528;52.124;5.196;2023-04-15T04:39:21;100917.00;;;12.90
20736;BMP180;10528;52.124;5.196;2023-04-15T04:41:49;100932.00;;;12.90
20736;BMP180;10528;52.124;5.196;2023-04-15T04:44:16;100935.00;;;12.90
20736;BMP180;10528;52.124;5.196;2023-04-15T04:46:43;100938.00;;;12.90
20736;BMP180;10528;52.124;5.196;2023-04-15T04:49:10;100943.00;;;12.80
20736;BMP180;10528;52.124;5.196;2023-04-15T04:51:37;100947.00;;;12.80
20736;BMP180;10528;52.124;5.196;2023-04-15T04:54:04;100945.00;;;12.80
20736;BMP180;10528;52.124;5.196;2023-04-15T04:56:31;100946.00;;;12.80
20736;BMP180;10528;52.124;5.196;2023-04-15T04:58:57;100956.00;;;12.80
20736;BMP180;10528;52.124;5.196;2023-04-15T05:01:25;100960.00;;;12.80
20736;BMP180;10528;52.124;5.196;2023-04-15T05:03:54;100958.00;;;12.80
20736;BMP180;10528;52.124;5.196;2023-04-15T05:06:21;100958.00;;;12.70
20736;BMP180;10528;52.124;5.196;2023-04-15T05:08:48;100966.00;;;12.70
20736;BMP180;10528;52.124;5.196;2023-04-15T05:11:14;100979.00;;;12.70
20736;BMP180;10528;52.124;5.196;2023-04-15T05:13:41;100975.00;;;12.70
20736;BMP180;10528;52.124;5.196;2023-04-15T05:16:08;100983.00;;;12.70
20736;BMP180;10528;52.124;5.196;2023-04-15T05:18:35;100980.00;;;12.60
20736;BMP180;10528;52.124;5.196;2023-04-15T05:21:02;100993.00;;;12.60
20736;BMP180;10528;52.124;5.196;2023-04-15T05:23:29;100986.00;;;12.60
20736;BMP180;10528;52.124;5.196;2023-04-15T05:25:56;100991.00;;;12.60
20736;BMP180;10528;52.124;5.196;2023-04-15T05:28:23;101000.00;;;12.60
20736;BMP180;10528;52.124;5.196;2023-04-15T05:30:50;101005.00;;;12.60
20736;BMP180;10528;52.124;5.196;2023-04-15T05:33:17;101008.00;;;12.60
20736;BMP180;10528;52.124;5.196;2023-04-15T05:35:44;101006.00;;;12.60
20736;BMP180;10528;52.124;5.196;2023-04-15T05:38:11;101012.00;;;12.60
20736;BMP180;10528;52.124;5.196;2023-04-15T05:40:38;101025.00;;;12.60
20736;BMP180;10528;52.124;5.196;2023-04-15T05:43:05;101019.00;;;12.60
20736;BMP180;10528;52.124;5.196;2023-04-15T05:45:32;101029.00;;;12.60
20736;BMP180;10528;52.124;5.196;2023-04-15T05:47:59;101024.00;;;12.60
20736;BMP180;10528;52.124;5.196;2023-04-15T05:50:26;101038.00;;;12.60
20736;BMP180;10528;52.124;5.196;2023-04-15T05:52:53;101041.00;;;12.60
20736;BMP180;10528;52.124;5.196;2023-04-15T05:55:20;101039.00;;;12.60
20736;BMP180;10528;52.124;5.196;2023-04-15T05:57:46;101053.00;;;12.70
20736;BMP180;10528;52.124;5.196;2023-04-15T06:00:14;101055.00;;;12.70
20736;BMP180;10528;52.124;5.196;2023-04-15T06:02:41;101054.00;;;12.80
20736;BMP180;10528;52.124;5.196;2023-04-15T06:05:08;101059.00;;;12.80
20736;BMP180;10528;52.124;5.196;2023-04-15T06:07:37;101073.00;;;12.90
20736;BMP180;10528;52.124;5.196;2023-04-15T06:10:05;101078.00;;;12.90
20736;BMP180;10528;52.124;5.196;2023-04-15T06:12:32;101083.00;;;12.90
20736;BMP180;10528;52.124;5.196;2023-04-15T06:14:59;101074.00;;;13.00
20736;BMP180;10528;52.124;5.196;2023-04-15T06:17:26;101080.00;;;13.00
20736;BMP180;10528;52.124;5.196;2023-04-15T06:19:53;101085.00;;;13.10
20736;BMP180;10528;52.124;5.196;2023-04-15T06:22:22;101092.00;;;13.10
20736;BMP180;10528;52.124;5.196;2023-04-15T06:24:49;101095.00;;;13.20
20736;BMP180;10528;52.124;5.196;2023-04-15T06:27:17;101101.00;;;13.20
20736;BMP180;10528;52.124;5.196;2023-04-15T06:29:44;101104.00;;;13.20
20736;BMP180;10528;52.124;5.196;2023-04-15T06:32:11;101107.00;;;13.30
20736;BMP180;10528;52.124;5.196;2023-04-15T06:34:38;101104.00;;;13.30
20736;BMP180;10528;52.124;5.196;2023-04-15T06:37:05;101107.00;;;13.40
20736;BMP180;10528;52.124;5.196;2023-04-15T06:39:32;101110.00;;;13.40
20736;BMP180;10528;52.124;5.196;2023-04-15T06:41:59;101121.00;;;13.60
20736;BMP180;10528;52.124;5.196;2023-04-15T06:44:28;101130.00;;;13.70
20736;BMP180;10528;52.124;5.196;2023-04-15T06:46:54;101132.00;;;13.80
20736;BMP180;10528;52.124;5.196;2023-04-15T06:49:22;101134.00;;;13.90
20736;BMP180;10528;52.124;5.196;2023-04-15T06:51:49;101137.00;;;14.00
20736;BMP180;10528;52.124;5.196;2023-04-15T06:54:17;101137.00;;;14.10
20736;BMP180;10528;52.124;5.196;2023-04-15T06:56:44;101147.00;;;14.20
20736;BMP180;10528;52.124;5.196;2023-04-15T06:59:11;101149.00;;;14.30
20736;BMP180;10528;52.124;5.196;2023-04-15T07:01:41;101147.00;;;14.40
20736;BMP180;10528;52.124;5.196;2023-04-15T07:04:08;101161.00;;;14.50
20736;BMP180;10528;52.124;5.196;2023-04-15T07:06:35;101157.00;;;14.50
20736;BMP180;10528;52.124;5.196;2023-04-15T07:09:02;101172.00;;;14.60
20736;BMP180;10528;52.124;5.196;2023-04-15T07:11:31;101175.00;;;14.60
20736;BMP180;10528;52.124;5.196;2023-04-15T07:13:58;101164.00;;;14.70
20736;BMP180;10528;52.124;5.196;2023-04-15T07:16:25;101172.00;;;14.70
20736;BMP180;10528;52.124;5.196;2023-04-15T07:18:55;101185.00;;;14.70
20736;BMP180;10528;52.124;5.196;2023-04-15T07:21:24;101177.00;;;14.70
20736;BMP180;10528;52.124;5.196;2023-04-15T07:23:51;101187.00;;;14.80
20736;BMP180;10528;52.124;5.196;2023-04-15T07:26:18;101185.00;;;14.80
20736;BMP180;10528;52.124;5.196;2023-04-15T07:28:45;101193.00;;;14.80
20736;BMP180;10528;52.124;5.196;2023-04-15T07:31:13;101196.00;;;14.80
20736;BMP180;10528;52.124;5.196;2023-04-15T07:33:40;101202.00;;;14.90
20736;BMP180;10528;52.124;5.196;2023-04-15T07:36:07;101205.00;;;14.90
20736;BMP180;10528;52.124;5.196;2023-04-15T07:38:34;101199.00;;;15.00
20736;BMP180;10528;52.124;5.196;2023-04-15T07:41:01;101201.00;;;15.00
20736;BMP180;10528;52.124;5.196;2023-04-15T07:43:28;101207.00;;;15.10
20736;BMP180;10528;52.124;5.196;2023-04-15T07:45:55;101214.00;;;15.10
20736;BMP180;10528;52.124;5.196;2023-04-15T07:48:22;101220.00;;;15.20
20736;BMP180;10528;52.124;5.196;2023-04-15T07:50:49;101217.00;;;15.30
20736;BMP180;10528;52.124;5.196;2023-04-15T07:53:16;101225.00;;;15.30
20736;BMP180;10528;52.124;5.196;2023-04-15T07:55:43;101238.00;;;15.40
20736;BMP180;10528;52.124;5.196;2023-04-15T07:58:09;101224.00;;;15.40
20736;BMP180;10528;52.124;5.196;2023-04-15T08:00:37;101249.00;;;15.40
20736;BMP180;10528;52.124;5.196;2023-04-15T08:03:04;101258.00;;;15.50
20736;BMP180;10528;52.124;5.196;2023-04-15T08:05:31;101240.00;;;15.60
20736;BMP180;10528;52.124;5.196;2023-04-15T08:07:58;101246.00;;;15.70
20736;BMP180;10528;52.124;5.196;2023-04-15T08:10:25;101257.00;;;15.80
20736;BMP180;10528;52.124;5.196;2023-04-15T08:12:53;101260.00;;;15.90
20736;BMP180;10528;52.124;5.196;2023-04-15T08:15:20;101259.00;;;15.90
20736;BMP180;10528;52.124;5.196;2023-04-15T08:17:47;101256.00;;;16.00
20736;BMP180;10528;52.124;5.196;2023-04-15T08:20:15;101261.00;;;16.10
20736;BMP180;10528;52.124;5.196;2023-04-15T08:22:41;101252.00;;;16.10
20736;BMP180;10528;52.124;5.196;2023-04-15T08:25:09;101267.00;;;16.20
20736;BMP180;10528;52.124;5.196;2023-04-15T08:27:36;101271.00;;;16.20
20736;BMP180;10528;52.124;5.196;2023-04-15T08:30:03;101272.00;;;16.30
20736;BMP180;10528;52.124;5.196;2023-04-15T08:32:31;101269.00;;;16.30
20736;BMP180;10528;52.124;5.196;2023-04-15T08:34:58;101274.00;;;16.40
20736;BMP180;10528;52.124;5.196;2023-04-15T08:37:24;101279.00;;;16.50
20736;BMP180;10528;52.124;5.196;2023-04-15T08:39:52;101274.00;;;16.50
20736;BMP180;10528;52.124;5.196;2023-04-15T08:42:27;101295.00;;;16.60
20736;BMP180;10528;52.124;5.196;2023-04-15T08:44:59;101302.00;;;16.70
20736;BMP180;10528;52.124;5.196;2023-04-15T08:47:30;101303.00;;;16.80
20736;BMP180;10528;52.124;5.196;2023-04-15T08:50:03;101311.00;;;16.80
20736;BMP180;10528;52.124;5.196;2023-04-15T08:52:30;101300.00;;;16.90
20736;BMP180;10528;52.124;5.196;2023-04-15T08:55:01;101314.00;;;17.00
20736;BMP180;10528;52.124;5.196;2023-04-15T08:57:28;101319.00;;;17.10
20736;BMP180;10528;52.124;5.196;2023-04-15T08:59:56;101315.00;;;17.10
20736;BMP180;10528;52.124;5.196;2023-04-15T09:02:25;101325.00;;;17.20
20736;BMP180;10528;52.124;5.196;2023-04-15T09:04:53;101328.00;;;17.30
20736;BMP180;10528;52.124;5.196;2023-04-15T09:07:20;101339.00;;;17.30
20736;BMP180;10528;52.124;5.196;2023-04-15T09:09:47;101337.00;;;17.40
20736;BMP180;10528;52.124;5.196;2023-04-15T09:12:14;101329.00;;;17.40
20736;BMP180;10528;52.124;5.196;2023-04-15T09:14:46;101342.00;;;17.50
20736;BMP180;10528;52.124;5.196;2023-04-15T09:17:18;101351.00;;;17.60
20736;BMP180;10528;52.124;5.196;2023-04-15T09:19:46;101349.00;;;17.70
20736;BMP180;10528;52.124;5.196;2023-04-15T09:22:14;101348.00;;;17.80
20736;BMP180;10528;52.124;5.196;2023-04-15T09:24:41;101359.00;;;17.90
20736;BMP180;10528;52.124;5.196;2023-04-15T09:27:09;101350.00;;;17.90
20736;BMP180;10528;52.124;5.196;2023-04-15T09:29:36;101360.00;;;18.00
20736;BMP180;10528;52.124;5.196;2023-04-15T09:32:14;101368.00;;;18.00
20736;BMP180;10528;52.124;5.196;2023-04-15T09:34:42;101377.00;;;18.00
20736;BMP180;10528;52.124;5.196;2023-04-15T09:37:08;101385.00;;;18.00
20736;BMP180;10528;52.124;5.196;2023-04-15T09:39:51;101377.00;;;18.00
20736;BMP180;10528;52.124;5.196;2023-04-15T09:42:18;101382.00;;;18.10
20736;BMP180;10528;52.124;5.196;2023-04-15T09:44:52;101375.00;;;18.10
20736;BMP180;10528;52.124;5.196;2023-04-15T09:47:30;101390.00;;;18.20
20736;BMP180;10528;52.124;5.196;2023-04-15T09:49:58;101396.00;;;18.20
20736;BMP180;10528;52.124;5.196;2023-04-15T09:52:26;101388.00;;;18.30
20736;BMP180;10528;52.124;5.196;2023-04-15T09:54:58;101392.00;;;18.40
20736;BMP180;10528;52.124;5.196;2023-04-15T09:57:34;101389.00;;;18.50
20736;BMP180;10528;52.124;5.196;2023-04-15T10:00:07;101397.00;;;18.60
20736;BMP180;10528;52.124;5.196;2023-04-15T10:02:35;101406.00;;;18.70
20736;BMP180;10528;52.124;5.196;2023-04-15T10:05:03;101397.00;;;18.70
20736;BMP180;10528;52.124;5.196;2023-04-15T10:07:30;101397.00;;;18.80
20736;BMP180;10528;52.124;5.196;2023-04-15T10:09:59;101405.00;;;18.80
20736;BMP180;10528;52.124;5.196;2023-04-15T10:12:28;101398.00;;;18.90
20736;BMP180;10528;52.124;5.196;2023-04-15T10:15:02;101409.00;;;18.90
20736;BMP180;10528;52.124;5.196;2023-04-15T10:17:34;101424.00;;;19.00
20736;BMP180;10528;52.124;5.196;2023-04-15T10:20:04;101413.00;;;19.00
20736;BMP180;10528;52.124;5.196;2023-04-15T10:22:32;101420.00;;;19.10
20736;BMP180;10528;52.124;5.196;2023-04-15T10:24:59;101409.00;;;19.20
20736;BMP180;10528;52.124;5.196;2023-04-15T10:27:27;101418.00;;;19.30
20736;BMP180;10528;52.124;5.196;2023-04-15T10:29:55;101428.00;;;19.30
20736;BMP180;10528;52.124;5.196;2023-04-15T10:32:25;101423.00;;;19.30
20736;BMP180;10528;52.124;5.196;2023-04-15T10:34:53;101420.00;;;19.40
20736;BMP180;10528;52.124;5.196;2023-04-15T10:37:35;101417.00;;;19.50
20736;BMP180;10528;52.124;5.196;2023-04-15T10:40:29;101430.00;;;19.50
20736;BMP180;10528;52.124;5.196;2023-04-15T10:43:01;101439.00;;;19.60
20736;BMP180;10528;52.124;5.196;2023-04-15T10:45:36;101443.00;;;19.70
20736;BMP180;10528;52.124;5.196;2023-04-15T10:48:06;101444.00;;;19.70
20736;BMP180;10528;52.124;5.196;2023-04-15T10:50:36;101439.00;;;19.80
20736;BMP180;10528;52.124;5.196;2023-04-15T10:53:03;101454.00;;;19.90
20736;BMP180;10528;52.124;5.196;2023-04-15T10:55:33;101454.00;;;19.90
20736;BMP180;10528;52.124;5.196;2023-04-15T10:58:02;101442.00;;;19.90
20736;BMP180;10528;52.124;5.196;2023-04-15T11:00:31;101454.00;;;19.80
20736;BMP180;10528;52.124;5.196;2023-04-15T11:03:07;101454.00;;;19.90
20736;BMP180;10528;52.124;5.196;2023-04-15T11:08:11;101460.00;;;20.00
20736;BMP180;10528;52.124;5.196;2023-04-15T11:13:19;101466.00;;;20.10
20736;BMP180;10528;52.124;5.196;2023-04-15T11:15:54;101466.00;;;20.20
20736;BMP180;10528;52.124;5.196;2023-04-15T11:18:26;101462.00;;;20.20
20736;BMP180;10528;52.124;5.196;2023-04-15T11:21:07;101469.00;;;20.30
20736;BMP180;10528;52.124;5.196;2023-04-15T11:23:39;101469.00;;;20.30
20736;BMP180;10528;52.124;5.196;2023-04-15T11:26:09;101454.00;;;20.30
20736;BMP180;10528;52.124;5.196;2023-04-15T11:28:42;101477.00;;;20.40
20736;BMP180;10528;52.124;5.196;2023-04-15T11:31:15;101464.00;;;20.50
20736;BMP180;10528;52.124;5.196;2023-04-15T11:33:59;101471.00;;;20.50
20736;BMP180;10528;52.124;5.196;2023-04-15T11:36:29;101475.00;;;20.50
20736;BMP180;10528;52.124;5.196;2023-04-15T11:38:58;101482.00;;;20.40
20736;BMP180;10528;52.124;5.196;2023-04-15T11:41:25;101494.00;;;20.40
20736;BMP180;10528;52.124;5.196;2023-04-15T11:43:52;101494.00;;;20.40
20736;BMP180;10528;52.124;5.196;2023-04-15T11:46:20;101494.00;;;20.40
20736;BMP180;10528;52.124;5.196;2023-04-15T11:48:48;101501.00;;;20.40
20736;BMP180;10528;52.124;5.196;2023-04-15T11:51:15;101498.00;;;20.30
20736;BMP180;10528;52.124;5.196;2023-04-15T11:53:48;101502.00;;;20.40
20736;BMP180;10528;52.124;5.196;2023-04-15T11:56:25;101514.00;;;20.30
20736;BMP180;10528;52.124;5.196;2023-04-15T11:58:54;101515.00;;;20.30
20736;BMP180;10528;52.124;5.196;2023-04-15T12:01:37;101517.00;;;20.30
20736;BMP180;10528;52.124;5.196;2023-04-15T12:04:16;101510.00;;;20.40
20736;BMP180;10528;52.124;5.196;2023-04-15T12:06:48;101520.00;;;20.50
20736;BMP180;10528;52.124;5.196;2023-04-15T12:09:15;101521.00;;;20.50
20736;BMP180;10528;52.124;5.196;2023-04-15T12:11:55;101531.00;;;20.50
20736;BMP180;10528;52.124;5.196;2023-04-15T12:14:28;101523.00;;;20.60
20736;BMP180;10528;52.124;5.196;2023-04-15T12:17:04;101531.00;;;20.60
20736;BMP180;10528;52.124;5.196;2023-04-15T12:19:40;101532.00;;;20.60
20736;BMP180;10528;52.124;5.196;2023-04-15T12:24:38;101535.00;;;20.70
20736;BMP180;10528;52.124;5.196;2023-04-15T12:27:08;101531.00;;;20.70
20736;BMP180;10528;52.124;5.196;2023-04-15T12:29:37;101540.00;;;20.70
20736;BMP180;10528;52.124;5.196;2023-04-15T12:32:13;101556.00;;;20.80
20736;BMP180;10528;52.124;5.196;2023-04-15T12:34:49;101545.00;;;20.70
20736;BMP180;10528;52.124;5.196;2023-04-15T12:37:16;101551.00;;;20.70
20736;BMP180;10528;52.124;5.196;2023-04-15T12:39:46;101557.00;;;20.70
20736;BMP180;10528;52.124;5.196;2023-04-15T12:42:16;101571.00;;;20.60
20736;BMP180;10528;52.124;5.196;2023-04-15T12:44:43;101568.00;;;20.60
20736;BMP180;10528;52.124;5.196;2023-04-15T12:47:12;101572.00;;;20.60
20736;BMP180;10528;52.124;5.196;2023-04-15T12:49:39;101563.00;;;20.60
20736;BMP180;10528;52.124;5.196;2023-04-15T12:52:07;101567.00;;;20.60
20736;BMP180;10528;52.124;5.196;2023-04-15T12:54:33;101572.00;;;20.60
20736;BMP180;10528;52.124;5.196;2023-04-15T12:57:01;101563.00;;;20.60
20736;BMP180;10528;52.124;5.196;2023-04-15T12:59:32;101577.00;;;20.60
20736;BMP180;10528;52.124;5.196;2023-04-15T13:01:59;101583.00;;;20.60
20736;BMP180;10528;52.124;5.196;2023-04-15T13:04:26;101576.00;;;20.60
20736;BMP180;10528;52.124;5.196;2023-04-15T13:06:56;101589.00;;;20.50
20736;BMP180;10528;52.124;5.196;2023-04-15T13:09:23;101588.00;;;20.40
20736;BMP180;10528;52.124;5.196;2023-04-15T13:11:50;101600.00;;;20.40
20736;BMP180;10528;52.124;5.196;2023-04-15T13:14:18;101608.00;;;20.40
20736;BMP180;10528;52.124;5.196;2023-04-15T13:16:45;101604.00;;;20.40
20736;BMP180;10528;52.124;5.196;2023-04-15T13:19:12;101597.00;;;20.40
20736;BMP180;10528;52.124;5.196;2023-04-15T13:21:40;101613.00;;;20.40
20736;BMP180;10528;52.124;5.196;2023-04-15T13:24:07;101609.00;;;20.40
20736;BMP180;10528;52.124;5.196;2023-04-15T13:26:35;101614.00;;;20.40
20736;BMP180;10528;52.124;5.196;2023-04-15T13:29:03;101619.00;;;20.30
20736;BMP180;10528;52.124;5.196;2023-04-15T13:31:30;101614.00;;;20.30
20736;BMP180;10528;52.124;5.196;2023-04-15T13:33:57;101641.00;;;20.30
20736;BMP180;10528;52.124;5.196;2023-04-15T13:36:24;101630.00;;;20.30
20736;BMP180;10528;52.124;5.196;2023-04-15T13:38:51;101636.00;;;20.30
20736;BMP180;10528;52.124;5.196;2023-04-15T13:41:18;101632.00;;;20.30
20736;BMP180;10528;52.124;5.196;2023-04-15T13:43:46;101640.00;;;20.30
20736;BMP180;10528;52.124;5.196;2023-04-15T13:46:13;101629.00;;;20.40
20736;BMP180;10528;52.124;5.196;2023-04-15T13:48:40;101647.00;;;20.40
20736;BMP180;10528;52.124;5.196;2023-04-15T13:51:07;101643.00;;;20.40
20736;BMP180;10528;52.124;5.196;2023-04-15T13:53:34;101649.00;;;20.30
20736;BMP180;10528;52.124;5.196;2023-04-15T13:56:08;101659.00;;;20.30
20736;BMP180;10528;52.124;5.196;2023-04-15T13:58:36;101663.00;;;20.20
20736;BMP180;10528;52.124;5.196;2023-04-15T14:01:05;101665.00;;;20.20
20736;BMP180;10528;52.124;5.196;2023-04-15T14:03:36;101669.00;;;20.10
20736;BMP180;10528;52.124;5.196;2023-04-15T14:06:05;101678.00;;;20.00
20736;BMP180;10528;52.124;5.196;2023-04-15T14:08:32;101673.00;;;19.90
20736;BMP180;10528;52.124;5.196;2023-04-15T14:10:59;101688.00;;;19.80